This is the latest recevied weather packets stored in our database for station/object NE1CU. If no packets are shown the sender has not sent any weather packets the latest 10 day(s).
| Time | Temp. | Humidity | Pressure | Rain* | Wind** | Luminosity | Snow |
|---|---|---|---|---|---|---|---|
| 1777735309 | 12.78° C | 69% | 1011.6 hPa | 0 mm | - | 311 W/m² | - |
| 1777735006 | 12.78° C | 70% | 1011.6 hPa | 0 mm | - | 154 W/m² | - |
| 1777734703 | 12.78° C | 70% | 1011.6 hPa | 0 mm | - | 326 W/m² | - |
| 1777734401 | 12.78° C | 72% | 1011.6 hPa | 0 mm | - | 254 W/m² | - |
| 1777734097 | 12.22° C | 72% | 1011.6 hPa | 0 mm | - | 244 W/m² | - |
| 1777733793 | 12.22° C | 71% | 1011.7 hPa | 0 mm | - | 143 W/m² | - |
| 1777733490 | 12.22° C | 71% | 1011.8 hPa | 0 mm | - | 93 W/m² | - |
| 1777733186 | 12.78° C | 71% | 1011.8 hPa | 0 mm | - | 133 W/m² | - |
| 1777732883 | 12.78° C | 70% | 1011.9 hPa | 0 mm | - | 103 W/m² | - |
| 1777732580 | 12.78° C | 71% | 1011.7 hPa | 0 mm | - | 91 W/m² | - |
| 1777732278 | 12.78° C | 70% | 1011.8 hPa | 0 mm | - | 152 W/m² | - |
| 1777731975 | 13.33° C | 70% | 1011.6 hPa | 0 mm | - | 181 W/m² | - |
| 1777731671 | 13.33° C | 66% | 1011.8 hPa | 0 mm | - | 146 W/m² | - |
| 1777731369 | 13.33° C | 66% | 1011.8 hPa | 0 mm | - | 240 W/m² | - |
| 1777731066 | 13.33° C | 69% | 1011.9 hPa | 0 mm | - | 404 W/m² | - |
| 1777730765 | 13.33° C | 67% | 1011.8 hPa | 0 mm | - | 266 W/m² | - |
| 1777730460 | 13.89° C | 67% | 1011.9 hPa | 0 mm | - | 319 W/m² | - |
| 1777730156 | 13.33° C | 69% | 1011.7 hPa | 0 mm | - | 408 W/m² | - |
| 1777729853 | 13.33° C | 71% | 1011.8 hPa | 0 mm | - | 355 W/m² | - |
| 1777729550 | 13.33° C | 69% | 1012.1 hPa | 0 mm | - | 333 W/m² | - |
| 1777729247 | 12.78° C | 75% | 1011.9 hPa | 0 mm | - | 598 W/m² | - |
| 1777728944 | 12.78° C | 72% | 1011.9 hPa | 0 mm | - | 206 W/m² | - |
| 1777728641 | 12.22° C | 75% | 1011.8 hPa | 0 mm | - | 259 W/m² | - |
| 1777728338 | 12.22° C | 76% | 1011.9 hPa | 0 mm | - | 218 W/m² | - |
| 1777728034 | 12.22° C | 76% | 1011.9 hPa | 0 mm | - | 149 W/m² | - |
* Rain latest hour (hover to see other rain measurements)
** Current wind speed in m/s (hover to see current wind gust speed)